createdAt,value
2017-02-11T00:00:49.846Z,1025.36
2017-02-11T00:01:59.546Z,1025.39
2017-02-11T00:03:09.254Z,1025.36
2017-02-11T00:04:18.143Z,1025.38
2017-02-11T00:05:28.091Z,1025.35
2017-02-11T00:06:37.790Z,1025.34
2017-02-11T00:07:47.086Z,1025.32
2017-02-11T00:08:56.783Z,1025.32
2017-02-11T00:10:06.483Z,1025.33
2017-02-11T00:11:16.694Z,1025.31
2017-02-11T00:12:26.817Z,1025.32
2017-02-11T00:13:36.515Z,1025.29
2017-02-11T00:14:45.808Z,1025.27
2017-02-11T00:15:55.103Z,1025.32
2017-02-11T00:17:04.294Z,1025.31
2017-02-11T00:18:13.184Z,1025.28
2017-02-11T00:19:23.295Z,1025.3
2017-02-11T00:20:32.180Z,1025.27
2017-02-11T00:21:41.878Z,1025.29
2017-02-11T00:22:50.867Z,1025.31
2017-02-11T00:24:00.169Z,1025.29
2017-02-11T00:25:09.059Z,1025.32
2017-02-11T00:26:18.758Z,1025.25
2017-02-11T00:27:28.050Z,1025.23
2017-02-11T00:28:37.854Z,1025.26
2017-02-11T00:29:47.152Z,1025.23
2017-02-11T00:30:56.038Z,1025.25
2017-02-11T00:32:05.332Z,1025.29
2017-02-11T00:33:15.437Z,1025.21
2017-02-11T00:34:24.829Z,1025.21
2017-02-11T00:35:33.715Z,1025.23
2017-02-11T00:36:43.009Z,1025.22
2017-02-11T00:37:52.304Z,1025.19
2017-02-11T00:39:01.195Z,1025.22
2017-02-11T00:40:10.181Z,1025.22
2017-02-11T00:41:19.473Z,1025.2
2017-02-11T00:42:28.772Z,1025.24
2017-02-11T00:43:38.877Z,1025.18
2017-02-11T00:44:48.584Z,1025.21
2017-02-11T00:45:58.443Z,1025.19
2017-02-11T00:47:08.146Z,1025.19
2017-02-11T00:48:17.035Z,1025.18
2017-02-11T00:49:26.329Z,1025.2
2017-02-11T00:50:36.025Z,1025.19
2017-02-11T00:51:45.368Z,1025.22
2017-02-11T00:52:54.255Z,1025.21
2017-02-11T00:54:03.958Z,1025.19
2017-02-11T00:55:13.253Z,1025.19
2017-02-11T00:56:22.547Z,1025.2
2017-02-11T00:57:32.102Z,1025.15
2017-02-11T00:58:41.811Z,1025.16
2017-02-11T00:59:51.107Z,1025.14
2017-02-11T01:01:00.407Z,1025.14
2017-02-11T01:02:10.110Z,1025.11
2017-02-11T01:03:19.859Z,1025.12
2017-02-11T01:04:28.744Z,1025.1
2017-02-11T01:05:38.854Z,1025.08
2017-02-11T01:06:48.553Z,1025.12
2017-02-11T01:07:57.440Z,1025.15
2017-02-11T01:09:07.272Z,1025.12
2017-02-11T01:10:16.973Z,1025.11
2017-02-11T01:11:26.265Z,1025.09
2017-02-11T01:12:35.967Z,1025.08
2017-02-11T01:13:46.077Z,1025.14
2017-02-11T01:14:55.474Z,1025.1
2017-02-11T01:16:04.771Z,1025.11
2017-02-11T01:17:14.481Z,1025.11
2017-02-11T01:18:23.775Z,1025.09
2017-02-11T01:19:33.484Z,1025.1
2017-02-11T01:20:43.182Z,1025.12
2017-02-11T01:21:52.889Z,1025.09
2017-02-11T01:23:02.596Z,1025.12
2017-02-11T01:24:12.304Z,1025.13
2017-02-11T01:25:21.598Z,1025.08
2017-02-11T01:26:30.895Z,1025.11
2017-02-11T01:27:40.596Z,1025.01
2017-02-11T01:28:49.481Z,1025.07
2017-02-11T01:29:59.183Z,1025.03
2017-02-11T01:31:08.890Z,1025.01
2017-02-11T01:32:18.336Z,1025.05
2017-02-11T01:33:27.225Z,1025
2017-02-11T01:34:36.110Z,1024.97
2017-02-11T01:35:45.407Z,1024.96
2017-02-11T01:36:54.293Z,1024.94
2017-02-11T01:38:04.143Z,1024.94
2017-02-11T01:39:13.439Z,1024.94
2017-02-11T01:40:22.329Z,1024.91
2017-02-11T01:41:31.622Z,1024.89
2017-02-11T01:42:40.919Z,1024.97
2017-02-11T01:43:51.079Z,1024.87
2017-02-11T01:45:00.797Z,1024.94
2017-02-11T01:46:10.091Z,1024.88
2017-02-11T01:47:18.978Z,1024.88
2017-02-11T01:48:29.089Z,1024.9
2017-02-11T01:49:38.684Z,1024.84
2017-02-11T01:50:47.982Z,1024.78
2017-02-11T01:51:57.277Z,1024.87
2017-02-11T01:53:06.571Z,1024.86
2017-02-11T01:54:15.873Z,1024.89
2017-02-11T01:55:25.221Z,1024.8
2017-02-11T01:56:34.519Z,1024.88
2017-02-11T01:57:44.254Z,1024.85
2017-02-11T01:58:53.552Z,1024.87
2017-02-11T02:00:03.256Z,1024.77
2017-02-11T02:01:13.208Z,1024.78
2017-02-11T02:02:22.097Z,1024.79
2017-02-11T02:03:31.399Z,1024.76
2017-02-11T02:04:41.102Z,1024.81
2017-02-11T02:05:50.810Z,1024.82
2017-02-11T02:07:00.920Z,1024.77
2017-02-11T02:08:10.213Z,1024.79
2017-02-11T02:09:19.915Z,1024.76
2017-02-11T02:10:30.024Z,1024.77
2017-02-11T02:11:40.133Z,1024.7
2017-02-11T02:12:49.530Z,1024.68
2017-02-11T02:13:58.824Z,1024.73
2017-02-11T02:15:08.121Z,1024.74
2017-02-11T02:16:17.420Z,1024.7
2017-02-11T02:17:27.119Z,1024.73
2017-02-11T02:18:37.024Z,1024.75
2017-02-11T02:19:46.324Z,1024.71
2017-02-11T02:20:56.844Z,1024.7
2017-02-11T02:22:06.146Z,1024.72
2017-02-11T02:23:15.461Z,1024.73
2017-02-11T02:24:25.384Z,1024.7
2017-02-11T02:25:34.271Z,1024.67
2017-02-11T02:26:44.804Z,1024.68
2017-02-11T02:27:54.098Z,1024.69
2017-02-11T02:29:03.397Z,1024.72
2017-02-11T02:30:13.159Z,1024.74
2017-02-11T02:31:22.458Z,1024.73
2017-02-11T02:32:31.348Z,1024.71
2017-02-11T02:33:41.460Z,1024.76
2017-02-11T02:34:51.171Z,1024.76
2017-02-11T02:36:00.517Z,1024.76
2017-02-11T02:37:09.403Z,1024.73
2017-02-11T02:38:18.700Z,1024.76
2017-02-11T02:39:27.996Z,1024.75
2017-02-11T02:40:37.698Z,1024.71
2017-02-11T02:41:46.636Z,1024.73
2017-02-11T02:42:55.931Z,1024.74
2017-02-11T02:44:05.228Z,1024.78
2017-02-11T02:45:14.522Z,1024.72
2017-02-11T02:46:23.819Z,1024.73
2017-02-11T02:47:33.520Z,1024.72
2017-02-11T02:48:42.815Z,1024.73
2017-02-11T02:49:52.109Z,1024.73
2017-02-11T02:51:02.220Z,1024.72
2017-02-11T02:52:11.514Z,1024.69
2017-02-11T02:53:20.462Z,1024.68
2017-02-11T02:54:30.565Z,1024.75
2017-02-11T02:55:39.856Z,1024.8
2017-02-11T02:56:49.149Z,1024.76
2017-02-11T02:57:58.847Z,1024.8
2017-02-11T02:59:08.963Z,1024.79
2017-02-11T03:00:19.069Z,1024.8
2017-02-11T03:01:28.770Z,1024.86
2017-02-11T03:02:38.470Z,1024.77
2017-02-11T03:03:47.762Z,1024.77
2017-02-11T03:04:57.104Z,1024.74
2017-02-11T03:06:06.806Z,1024.74
2017-02-11T03:07:15.696Z,1024.81
2017-02-11T03:08:24.994Z,1024.74
2017-02-11T03:09:35.103Z,1024.69
2017-02-11T03:10:44.803Z,1024.69
2017-02-11T03:11:54.507Z,1024.68
2017-02-11T03:13:04.212Z,1024.65
2017-02-11T03:14:13.915Z,1024.65
2017-02-11T03:15:24.035Z,1024.64
2017-02-11T03:16:33.883Z,1024.66
2017-02-11T03:17:42.770Z,1024.65
2017-02-11T03:18:52.065Z,1024.67
2017-02-11T03:20:01.767Z,1024.69
2017-02-11T03:21:12.689Z,1024.65
2017-02-11T03:22:22.280Z,1024.65
2017-02-11T03:23:31.162Z,1024.63
2017-02-11T03:24:41.273Z,1024.61
2017-02-11T03:25:50.977Z,1024.58
2017-02-11T03:27:00.676Z,1024.61
2017-02-11T03:28:09.711Z,1024.6
2017-02-11T03:29:19.006Z,1024.61
2017-02-11T03:30:29.111Z,1024.63
2017-02-11T03:31:38.404Z,1024.61
2017-02-11T03:32:48.105Z,1024.65
2017-02-11T03:33:57.056Z,1024.67
2017-02-11T03:35:06.765Z,1024.73
2017-02-11T03:36:15.652Z,1024.71
2017-02-11T03:37:24.946Z,1024.69
2017-02-11T03:38:34.647Z,1024.79
2017-02-11T03:39:44.205Z,1024.79
2017-02-11T03:40:53.498Z,1024.77
2017-02-11T03:42:03.200Z,1024.8
2017-02-11T03:43:12.904Z,1024.84
2017-02-11T03:44:22.193Z,1024.91
2017-02-11T03:45:32.193Z,1024.85
2017-02-11T03:46:41.900Z,1024.88
2017-02-11T03:47:51.192Z,1024.92
2017-02-11T03:49:00.486Z,1024.89
2017-02-11T03:50:09.779Z,1024.87
2017-02-11T03:51:18.915Z,1024.89
2017-02-11T03:52:28.208Z,1024.93
2017-02-11T03:53:37.910Z,1024.95
2017-02-11T03:54:47.207Z,1024.93
2017-02-11T03:55:56.511Z,1024.99
2017-02-11T03:57:05.905Z,1024.92
2017-02-11T03:58:16.011Z,1024.97
2017-02-11T03:59:25.710Z,1024.96
2017-02-11T04:00:35.000Z,1024.99
2017-02-11T04:01:44.706Z,1024.99
2017-02-11T04:02:53.791Z,1024.98
2017-02-11T04:04:02.679Z,1024.99
2017-02-11T04:05:12.788Z,1024.98
2017-02-11T04:06:21.673Z,1024.99
2017-02-11T04:07:30.969Z,1024.97
2017-02-11T04:08:40.057Z,1024.98
2017-02-11T04:09:49.347Z,1024.97
2017-02-11T04:10:58.683Z,1024.97
2017-02-11T04:12:08.384Z,1025.01
2017-02-11T04:13:17.674Z,1025.04
2017-02-11T04:14:26.861Z,1025
2017-02-11T04:15:36.562Z,1025.03
2017-02-11T04:16:45.854Z,1024.99
2017-02-11T04:17:55.151Z,1025.03
2017-02-11T04:19:04.851Z,1025.03
2017-02-11T04:20:14.248Z,1025.05
2017-02-11T04:21:23.951Z,1025.07
2017-02-11T04:22:33.650Z,1025.07
2017-02-11T04:23:43.757Z,1025.07
2017-02-11T04:24:53.054Z,1025.08
2017-02-11T04:26:02.959Z,1025.07
2017-02-11T04:27:12.662Z,1025.07
2017-02-11T04:28:21.958Z,1025.09
2017-02-11T04:29:31.660Z,1025.04
2017-02-11T04:30:41.361Z,1025.02
2017-02-11T04:31:50.498Z,1025.06
2017-02-11T04:32:59.788Z,1025.03
2017-02-11T04:34:09.490Z,1025.01
2017-02-11T04:35:18.373Z,1025.01
2017-02-11T04:36:27.666Z,1025
2017-02-11T04:37:37.524Z,1025
2017-02-11T04:38:46.818Z,1025
2017-02-11T04:39:56.109Z,1024.92
2017-02-11T04:41:05.807Z,1024.95
2017-02-11T04:42:15.099Z,1024.98
2017-02-11T04:43:24.594Z,1024.99
2017-02-11T04:44:35.109Z,1024.92
2017-02-11T04:45:44.810Z,1024.93
2017-02-11T04:46:54.514Z,1024.91
2017-02-11T04:48:05.032Z,1024.84
2017-02-11T04:49:13.998Z,1024.83
2017-02-11T04:50:23.298Z,1024.87
2017-02-11T04:51:33.000Z,1024.81
2017-02-11T04:52:42.296Z,1024.84
2017-02-11T04:53:51.588Z,1024.89
2017-02-11T04:55:01.334Z,1024.87
2017-02-11T04:56:10.233Z,1024.9
2017-02-11T04:57:19.938Z,1024.91
2017-02-11T04:58:28.828Z,1024.93
2017-02-11T04:59:38.531Z,1024.92
2017-02-11T05:00:47.570Z,1024.98
2017-02-11T05:01:56.865Z,1024.96
2017-02-11T05:03:06.167Z,1024.98
2017-02-11T05:04:15.874Z,1024.99
2017-02-11T05:05:25.173Z,1025.03
2017-02-11T05:06:34.977Z,1025.04
2017-02-11T05:07:44.670Z,1025.06
2017-02-11T05:08:53.960Z,1025.03
2017-02-11T05:10:04.072Z,1025.02
2017-02-11T05:11:13.777Z,1024.99
2017-02-11T05:12:23.071Z,1025
2017-02-11T05:13:31.960Z,1024.95
2017-02-11T05:14:42.070Z,1025
2017-02-11T05:15:51.362Z,1024.95
2017-02-11T05:17:01.469Z,1024.98
2017-02-11T05:18:10.762Z,1025
2017-02-11T05:19:19.648Z,1025
2017-02-11T05:20:29.352Z,1025
2017-02-11T05:21:38.645Z,1025
2017-02-11T05:22:48.346Z,1025.03
2017-02-11T05:23:58.355Z,1025.04
2017-02-11T05:25:07.659Z,1025.02
2017-02-11T05:26:16.955Z,1025.03
2017-02-11T05:27:27.075Z,1025.03
2017-02-11T05:28:36.779Z,1025.01
2017-02-11T05:29:46.580Z,1024.98
2017-02-11T05:30:55.875Z,1024.94
2017-02-11T05:32:04.762Z,1024.95
2017-02-11T05:33:14.463Z,1024.98
2017-02-11T05:34:23.756Z,1024.9
2017-02-11T05:35:33.744Z,1024.91
2017-02-11T05:36:43.048Z,1024.85
2017-02-11T05:37:51.934Z,1024.86
2017-02-11T05:39:01.234Z,1024.81
2017-02-11T05:40:10.936Z,1024.78
2017-02-11T05:41:20.075Z,1024.77
2017-02-11T05:42:28.960Z,1024.77
2017-02-11T05:43:38.255Z,1024.78
2017-02-11T05:44:47.138Z,1024.78
2017-02-11T05:45:56.429Z,1024.84
2017-02-11T05:47:06.332Z,1024.8
2017-02-11T05:48:16.032Z,1024.79
2017-02-11T05:49:25.732Z,1024.8
2017-02-11T05:50:35.035Z,1024.79
2017-02-11T05:51:45.156Z,1024.86
2017-02-11T05:52:54.606Z,1024.84
2017-02-11T05:54:04.715Z,1024.89
2017-02-11T05:55:13.602Z,1024.89
2017-02-11T05:56:23.313Z,1024.89
2017-02-11T05:57:33.015Z,1024.95
2017-02-11T05:58:43.172Z,1024.93
2017-02-11T05:59:52.056Z,1025
2017-02-11T06:01:00.945Z,1025.03
2017-02-11T06:02:10.240Z,1025.04
2017-02-11T06:03:19.948Z,1025.07
2017-02-11T06:04:29.851Z,1025.03
2017-02-11T06:05:39.557Z,1025.1
2017-02-11T06:06:48.851Z,1025.08
2017-02-11T06:07:58.552Z,1025.11
2017-02-11T06:09:07.845Z,1025.12
2017-02-11T06:10:16.734Z,1025.11
2017-02-11T06:11:26.882Z,1025.13
2017-02-11T06:12:36.606Z,1025.15
2017-02-11T06:13:46.311Z,1025.15
2017-02-11T06:14:56.418Z,1025.16
2017-02-11T06:16:05.763Z,1025.13
2017-02-11T06:17:15.053Z,1025.16
2017-02-11T06:18:24.345Z,1025.19
2017-02-11T06:19:33.644Z,1025.17
2017-02-11T06:20:42.529Z,1025.15
2017-02-11T06:21:52.235Z,1025.17
2017-02-11T06:23:01.527Z,1025.19
2017-02-11T06:24:10.823Z,1025.17
2017-02-11T06:25:20.115Z,1025.2
2017-02-11T06:26:29.819Z,1025.22
2017-02-11T06:27:39.108Z,1025.24
2017-02-11T06:28:49.214Z,1025.24
2017-02-11T06:29:58.916Z,1025.18
2017-02-11T06:31:08.210Z,1025.21
2017-02-11T06:32:17.505Z,1025.21
2017-02-11T06:33:27.669Z,1025.29
2017-02-11T06:34:36.557Z,1025.24
2017-02-11T06:35:45.444Z,1025.28
2017-02-11T06:36:54.734Z,1025.27
2017-02-11T06:38:04.029Z,1025.23
2017-02-11T06:39:12.970Z,1025.24
2017-02-11T06:40:22.268Z,1025.25
2017-02-11T06:41:31.564Z,1025.28
2017-02-11T06:42:40.890Z,1025.29
2017-02-11T06:43:49.774Z,1025.31
2017-02-11T06:44:59.070Z,1025.28
2017-02-11T06:46:07.952Z,1025.31
2017-02-11T06:47:16.839Z,1025.29
2017-02-11T06:48:26.536Z,1025.3
2017-02-11T06:49:35.422Z,1025.28
2017-02-11T06:50:45.015Z,1025.33
2017-02-11T06:51:55.126Z,1025.35
2017-02-11T06:53:04.422Z,1025.38
2017-02-11T06:54:14.125Z,1025.39
2017-02-11T06:55:23.420Z,1025.4
2017-02-11T06:56:33.221Z,1025.44
2017-02-11T06:57:42.524Z,1025.47
2017-02-11T06:58:51.415Z,1025.45
2017-02-11T07:00:01.526Z,1025.48
2017-02-11T07:01:11.227Z,1025.48
2017-02-11T07:02:21.033Z,1025.5
2017-02-11T07:03:30.740Z,1025.5
2017-02-11T07:04:40.040Z,1025.47
2017-02-11T07:05:49.739Z,1025.46
2017-02-11T07:06:58.624Z,1025.46
2017-02-11T07:08:07.758Z,1025.43
2017-02-11T07:09:17.866Z,1025.44
2017-02-11T07:10:26.759Z,1025.45
2017-02-11T07:11:36.499Z,1025.41
2017-02-11T07:12:45.791Z,1025.45
2017-02-11T07:13:54.828Z,1025.43
2017-02-11T07:15:04.938Z,1025.35
2017-02-11T07:16:13.820Z,1025.4
2017-02-11T07:17:23.117Z,1025.44
2017-02-11T07:18:32.414Z,1025.38
2017-02-11T07:19:41.809Z,1025.42
2017-02-11T07:20:50.696Z,1025.39
2017-02-11T07:21:59.987Z,1025.46
2017-02-11T07:23:08.870Z,1025.46
2017-02-11T07:24:18.164Z,1025.41
2017-02-11T07:25:28.278Z,1025.4
2017-02-11T07:26:37.162Z,1025.41
2017-02-11T07:27:46.043Z,1025.44
2017-02-11T07:28:55.335Z,1025.42
2017-02-11T07:30:05.034Z,1025.38
2017-02-11T07:31:14.526Z,1025.48
2017-02-11T07:32:23.410Z,1025.5
2017-02-11T07:33:32.708Z,1025.44
2017-02-11T07:34:42.409Z,1025.47
2017-02-11T07:35:51.702Z,1025.4
2017-02-11T07:37:01.454Z,1025.43
2017-02-11T07:38:10.747Z,1025.39
2017-02-11T07:39:20.447Z,1025.42
2017-02-11T07:40:30.559Z,1025.4
2017-02-11T07:41:40.259Z,1025.42
2017-02-11T07:42:49.956Z,1025.37
2017-02-11T07:43:59.251Z,1025.43
2017-02-11T07:45:08.952Z,1025.42
2017-02-11T07:46:17.837Z,1025.4
2017-02-11T07:47:27.952Z,1025.44
2017-02-11T07:48:37.295Z,1025.43
2017-02-11T07:49:46.588Z,1025.43
2017-02-11T07:50:56.289Z,1025.46
2017-02-11T07:52:05.586Z,1025.48
2017-02-11T07:53:15.289Z,1025.5
2017-02-11T07:54:25.143Z,1025.51
2017-02-11T07:55:34.847Z,1025.54
2017-02-11T07:56:44.953Z,1025.58
2017-02-11T07:57:54.247Z,1025.61
2017-02-11T07:59:03.950Z,1025.55
2017-02-11T08:00:13.291Z,1025.58
2017-02-11T08:01:22.176Z,1025.57
2017-02-11T08:02:31.469Z,1025.63
2017-02-11T08:03:40.351Z,1025.58
2017-02-11T08:04:50.048Z,1025.61
2017-02-11T08:05:59.543Z,1025.63
2017-02-11T08:07:08.428Z,1025.63
2017-02-11T08:08:17.725Z,1025.62
2017-02-11T08:09:27.021Z,1025.64
2017-02-11T08:10:37.137Z,1025.61
2017-02-11T08:11:46.435Z,1025.64
2017-02-11T08:12:55.324Z,1025.64
2017-02-11T08:14:05.029Z,1025.68
2017-02-11T08:15:14.733Z,1025.67
2017-02-11T08:16:24.025Z,1025.66
2017-02-11T08:17:33.569Z,1025.72
2017-02-11T08:18:43.272Z,1025.67
2017-02-11T08:19:52.976Z,1025.74
2017-02-11T08:21:02.271Z,1025.69
2017-02-11T08:22:11.158Z,1025.68
2017-02-11T08:23:20.535Z,1025.71
2017-02-11T08:24:30.248Z,1025.68
2017-02-11T08:25:39.948Z,1025.72
2017-02-11T08:26:49.246Z,1025.72
2017-02-11T08:27:58.539Z,1025.65
2017-02-11T08:29:07.474Z,1025.65
2017-02-11T08:30:16.768Z,1025.7
2017-02-11T08:31:26.473Z,1025.68
2017-02-11T08:32:35.771Z,1025.64
2017-02-11T08:33:45.076Z,1025.67
2017-02-11T08:34:54.113Z,1025.64
2017-02-11T08:36:03.004Z,1025.68
2017-02-11T08:37:12.313Z,1025.67
2017-02-11T08:38:21.641Z,1025.7
2017-02-11T08:39:30.934Z,1025.7
2017-02-11T08:40:40.230Z,1025.65
2017-02-11T08:41:49.933Z,1025.72
2017-02-11T08:42:59.674Z,1025.73
2017-02-11T08:44:09.028Z,1025.79
2017-02-11T08:45:18.115Z,1025.77
2017-02-11T08:46:27.410Z,1025.75
2017-02-11T08:47:36.707Z,1025.74
2017-02-11T08:48:46.001Z,1025.82
2017-02-11T08:49:55.303Z,1025.75
2017-02-11T08:51:05.821Z,1025.73
2017-02-11T08:52:15.119Z,1025.77
2017-02-11T08:53:24.854Z,1025.76
2017-02-11T08:54:34.151Z,1025.71
2017-02-11T08:55:44.263Z,1025.72
2017-02-11T08:56:53.147Z,1025.73
2017-02-11T08:58:02.852Z,1025.72
2017-02-11T08:59:12.145Z,1025.72
2017-02-11T09:00:21.034Z,1025.7
2017-02-11T09:01:30.366Z,1025.72
2017-02-11T09:02:39.658Z,1025.66
2017-02-11T09:03:48.956Z,1025.7
2017-02-11T09:04:58.251Z,1025.68
2017-02-11T09:06:07.290Z,1025.72
2017-02-11T09:07:17.402Z,1025.72
2017-02-11T09:08:26.323Z,1025.72
2017-02-11T09:09:35.620Z,1025.72
2017-02-11T09:10:44.959Z,1025.69
2017-02-11T09:11:54.256Z,1025.66
2017-02-11T09:13:03.555Z,1025.67
2017-02-11T09:14:12.850Z,1025.62
2017-02-11T09:15:21.734Z,1025.64
2017-02-11T09:16:30.624Z,1025.65
2017-02-11T09:17:40.737Z,1025.61
2017-02-11T09:18:50.850Z,1025.61
2017-02-11T09:20:00.973Z,1025.61
2017-02-11T09:21:10.266Z,1025.65
2017-02-11T09:22:19.972Z,1025.63
2017-02-11T09:23:29.724Z,1025.62
2017-02-11T09:24:39.428Z,1025.62
2017-02-11T09:25:49.129Z,1025.61
2017-02-11T09:26:58.834Z,1025.61
2017-02-11T09:28:08.131Z,1025.65
2017-02-11T09:29:17.937Z,1025.65
2017-02-11T09:30:26.819Z,1025.65
2017-02-11T09:31:35.702Z,1025.65
2017-02-11T09:32:44.994Z,1025.64
2017-02-11T09:33:55.104Z,1025.68
2017-02-11T09:35:04.957Z,1025.7
2017-02-11T09:36:13.842Z,1025.65
2017-02-11T09:37:23.950Z,1025.69
2017-02-11T09:38:32.838Z,1025.71
2017-02-11T09:39:42.547Z,1025.7
2017-02-11T09:40:52.867Z,1025.69
2017-02-11T09:42:02.169Z,1025.68
2017-02-11T09:43:11.875Z,1025.67
2017-02-11T09:44:21.175Z,1025.68
2017-02-11T09:45:30.474Z,1025.72
2017-02-11T09:46:40.588Z,1025.72
2017-02-11T09:47:49.885Z,1025.73
2017-02-11T09:48:59.181Z,1025.78
2017-02-11T09:50:08.890Z,1025.73
2017-02-11T09:51:18.194Z,1025.75
2017-02-11T09:52:27.243Z,1025.74
2017-02-11T09:53:37.356Z,1025.72
2017-02-11T09:54:46.651Z,1025.77
2017-02-11T09:55:55.945Z,1025.7
2017-02-11T09:57:05.242Z,1025.71
2017-02-11T09:58:14.538Z,1025.69
2017-02-11T09:59:23.839Z,1025.68
2017-02-11T10:01:00.981Z,1025.7
2017-02-11T10:02:11.106Z,1025.71
2017-02-11T10:03:20.808Z,1025.69
2017-02-11T10:04:30.109Z,1025.71
2017-02-11T10:05:39.408Z,1025.67
2017-02-11T10:06:48.705Z,1025.74
2017-02-11T10:07:58.416Z,1025.66
2017-02-11T10:09:07.304Z,1025.65
2017-02-11T10:10:16.190Z,1025.64
2017-02-11T10:11:25.484Z,1025.65
2017-02-11T10:12:35.590Z,1025.65
2017-02-11T10:13:45.292Z,1025.68
2017-02-11T10:14:55.007Z,1025.63
2017-02-11T10:16:05.119Z,1025.69
2017-02-11T10:17:14.007Z,1025.74
2017-02-11T10:18:23.302Z,1025.7
2017-02-11T10:19:32.600Z,1025.74
2017-02-11T10:20:41.486Z,1025.75
2017-02-11T10:21:51.189Z,1025.76
2017-02-11T10:23:00.895Z,1025.75
2017-02-11T10:24:10.851Z,1025.79
2017-02-11T10:25:20.555Z,1025.77
2017-02-11T10:26:30.663Z,1025.76
2017-02-11T10:27:40.364Z,1025.74
2017-02-11T10:28:49.808Z,1025.76
2017-02-11T10:29:58.695Z,1025.72
2017-02-11T10:31:08.402Z,1025.71
2017-02-11T10:32:18.103Z,1025.72
2017-02-11T10:33:27.398Z,1025.7
2017-02-11T10:34:36.840Z,1025.68
2017-02-11T10:35:46.135Z,1025.67
2017-02-11T10:36:55.836Z,1025.65
2017-02-11T10:38:05.960Z,1025.65
2017-02-11T10:39:15.256Z,1025.63
2017-02-11T10:40:24.389Z,1025.61
2017-02-11T10:41:33.717Z,1025.58
2017-02-11T10:42:43.015Z,1025.61
2017-02-11T10:43:52.314Z,1025.66
2017-02-11T10:45:02.023Z,1025.58
2017-02-11T10:46:11.879Z,1025.59
2017-02-11T10:47:20.769Z,1025.53
2017-02-11T10:48:30.474Z,1025.55
2017-02-11T10:49:39.774Z,1025.57
2017-02-11T10:50:48.661Z,1025.54
2017-02-11T10:51:57.599Z,1025.54
2017-02-11T10:53:06.904Z,1025.53
2017-02-11T10:54:16.614Z,1025.56
2017-02-11T10:55:26.318Z,1025.54
2017-02-11T10:56:35.611Z,1025.55
2017-02-11T10:57:45.514Z,1025.54
2017-02-11T10:58:55.224Z,1025.51
2017-02-11T11:00:05.334Z,1025.56
2017-02-11T11:01:15.036Z,1025.56
2017-02-11T11:02:23.926Z,1025.53
2017-02-11T11:03:33.680Z,1025.54
2017-02-11T11:04:42.562Z,1025.54
2017-02-11T11:05:51.876Z,1025.51
2017-02-11T11:07:01.171Z,1025.54
2017-02-11T11:08:10.057Z,1025.53
2017-02-11T11:09:19.403Z,1025.56
2017-02-11T11:10:29.108Z,1025.55
2017-02-11T11:11:39.223Z,1025.52
2017-02-11T11:12:48.117Z,1025.51
2017-02-11T11:13:58.639Z,1025.56
2017-02-11T11:15:08.778Z,1025.53
2017-02-11T11:16:18.479Z,1025.54
2017-02-11T11:17:28.587Z,1025.55
2017-02-11T11:18:38.689Z,1025.52
2017-02-11T11:19:48.401Z,1025.49
2017-02-11T11:20:57.287Z,1025.51
2017-02-11T11:22:06.584Z,1025.47
2017-02-11T11:23:15.883Z,1025.47
2017-02-11T11:24:25.179Z,1025.47
2017-02-11T11:25:35.296Z,1025.51
2017-02-11T11:26:45.405Z,1025.54
2017-02-11T11:27:55.112Z,1025.59
2017-02-11T11:29:05.230Z,1025.55
2017-02-11T11:30:14.120Z,1025.55
2017-02-11T11:31:23.818Z,1025.59
2017-02-11T11:32:33.521Z,1025.52
2017-02-11T11:33:42.415Z,1025.55
2017-02-11T11:34:52.530Z,1025.55
2017-02-11T11:36:01.419Z,1025.51
2017-02-11T11:37:10.719Z,1025.5
2017-02-11T11:38:19.603Z,1025.56
2017-02-11T11:39:28.900Z,1025.5
2017-02-11T11:40:38.038Z,1025.41
2017-02-11T11:41:47.333Z,1025.47
2017-02-11T11:42:57.038Z,1025.53
2017-02-11T11:44:06.333Z,1025.4
2017-02-11T11:45:16.041Z,1025.38
2017-02-11T11:46:25.342Z,1025.27
2017-02-11T11:47:34.640Z,1025.32
2017-02-11T11:48:44.371Z,1025.27
2017-02-11T11:49:55.305Z,1025.31
2017-02-11T11:51:04.685Z,1025.3
2017-02-11T11:52:14.702Z,1025.28
2017-02-11T11:53:24.406Z,1025.31
2017-02-11T11:54:33.716Z,1025.27
2017-02-11T11:55:43.892Z,1025.34
2017-02-11T11:56:53.199Z,1025.38
2017-02-11T11:58:02.397Z,1025.31
2017-02-11T11:59:11.298Z,1025.35
2017-02-11T12:00:20.197Z,1025.34
2017-02-11T12:01:29.513Z,1025.37
2017-02-11T12:02:38.821Z,1025.32
2017-02-11T12:03:47.819Z,1025.41
2017-02-11T12:04:57.119Z,1025.34
2017-02-11T12:06:06.017Z,1025.32
2017-02-11T12:07:14.918Z,1025.39
2017-02-11T12:08:24.632Z,1025.39
2017-02-11T12:09:33.990Z,1025.32
2017-02-11T12:10:43.705Z,1025.28
2017-02-11T12:11:53.831Z,1025.33
2017-02-11T12:13:03.143Z,1025.3
2017-02-11T12:14:12.040Z,1025.31
2017-02-11T12:15:21.048Z,1025.35
2017-02-11T12:16:30.411Z,1025.34
2017-02-11T12:17:39.723Z,1025.32
2017-02-11T12:18:49.443Z,1025.31
2017-02-11T12:19:58.745Z,1025.28
2017-02-11T12:21:07.683Z,1025.22
2017-02-11T12:22:17.389Z,1025.18
2017-02-11T12:23:27.092Z,1025.18
2017-02-11T12:24:35.987Z,1025.2
2017-02-11T12:25:45.733Z,1025.22
2017-02-11T12:26:54.674Z,1025.19
2017-02-11T12:28:03.973Z,1025.11
2017-02-11T12:29:14.085Z,1025.1
2017-02-11T12:30:23.383Z,1025.11
2017-02-11T12:31:32.681Z,1025.16
2017-02-11T12:32:42.890Z,1025.12
2017-02-11T12:33:52.590Z,1025.09
2017-02-11T12:35:01.887Z,1025.11
2017-02-11T12:36:11.585Z,1025.11
2017-02-11T12:37:20.886Z,1025.1
2017-02-11T12:38:30.644Z,1025.05
2017-02-11T12:39:39.528Z,1025.09
2017-02-11T12:40:49.232Z,1025.07
2017-02-11T12:41:58.528Z,1025.07
2017-02-11T12:43:07.416Z,1024.98
2017-02-11T12:44:16.610Z,1025.03
2017-02-11T12:45:25.947Z,1025.01
2017-02-11T12:46:35.242Z,1025.01
2017-02-11T12:47:44.538Z,1025.05
2017-02-11T12:48:53.834Z,1024.99
2017-02-11T12:50:03.976Z,1025.02
2017-02-11T12:51:13.273Z,1025.03
2017-02-11T12:52:22.980Z,1025.02
2017-02-11T12:53:32.276Z,1025
2017-02-11T12:54:41.589Z,1025
2017-02-11T12:55:50.988Z,1025.04
2017-02-11T12:56:59.875Z,1025.02
2017-02-11T12:58:09.172Z,1025.01
2017-02-11T12:59:18.467Z,1025.02
2017-02-11T13:00:28.582Z,1024.97
2017-02-11T13:01:38.433Z,1024.95
2017-02-11T13:02:48.136Z,1025.01
2017-02-11T13:03:57.431Z,1024.96
2017-02-11T13:05:06.321Z,1024.95
2017-02-11T13:06:15.206Z,1025.02
2017-02-11T13:07:24.394Z,1024.95
2017-02-11T13:08:33.701Z,1024.97
2017-02-11T13:09:42.997Z,1024.93
2017-02-11T13:10:52.353Z,1024.97
2017-02-11T13:12:01.659Z,1025.02
2017-02-11T13:13:10.557Z,1025.07
2017-02-11T13:14:21.078Z,1025.04
2017-02-11T13:15:29.968Z,1025.09
2017-02-11T13:16:38.858Z,1025.15
2017-02-11T13:17:48.988Z,1025.1
2017-02-11T13:18:58.735Z,1025.09
2017-02-11T13:20:08.037Z,1025.16
2017-02-11T13:21:16.922Z,1025.13
2017-02-11T13:22:27.628Z,1025.07
2017-02-11T13:23:36.542Z,1025.09
2017-02-11T13:24:45.852Z,1025.1
2017-02-11T13:25:55.558Z,1025.11
2017-02-11T13:27:05.287Z,1025.13
2017-02-11T13:28:14.991Z,1025.11
2017-02-11T13:29:25.105Z,1025.09
2017-02-11T13:30:34.453Z,1025.1
2017-02-11T13:31:43.747Z,1025.06
2017-02-11T13:32:52.635Z,1025.1
2017-02-11T13:34:02.748Z,1025.12
2017-02-11T13:35:11.636Z,1025.11
2017-02-11T13:36:20.677Z,1025.09
2017-02-11T13:37:29.563Z,1025.13
2017-02-11T13:38:38.865Z,1025.13
2017-02-11T13:39:48.161Z,1025.14
2017-02-11T13:40:57.869Z,1025.12
2017-02-11T13:42:08.184Z,1025.09
2017-02-11T13:43:17.071Z,1025.07
2017-02-11T13:44:26.366Z,1025.09
2017-02-11T13:45:36.885Z,1025.07
2017-02-11T13:46:46.596Z,1025.11
2017-02-11T13:47:56.451Z,1025.03
2017-02-11T13:49:05.749Z,1025.1
2017-02-11T13:50:15.087Z,1025.08
2017-02-11T13:51:24.379Z,1025.01
2017-02-11T13:52:33.690Z,1025.03
2017-02-11T13:53:43.504Z,1025.01
2017-02-11T13:54:53.632Z,1025.03
2017-02-11T13:56:03.339Z,1025.01
2017-02-11T13:57:12.236Z,1025
2017-02-11T13:58:22.353Z,1025.01
2017-02-11T13:59:31.798Z,1025.01
2017-02-11T14:00:41.524Z,1024.99
2017-02-11T14:01:51.233Z,1025
2017-02-11T14:03:00.123Z,1024.96
2017-02-11T14:04:09.826Z,1025.06
2017-02-11T14:05:18.950Z,1025.03